Saturday, November 22, 2014
21:25 UTC
  |  Log In   |  Register Free
Airport Search:

Oroville Municipal Airport
(KOVE)

Oroville Municipal Airport Diagram
No Airport Diagram Available

FAA data valid effective November 13, 2014 - January 08, 2015 (unless otherwise noted).

 
 
 
 
 
 
 
 
 
 
 
 
 
 

Current Aviation Weather for Oroville Municipal Airport (KOVE)

The most recent METAR observation for KOVE was updated at: 2121
METAR Summary (Translated METAR)
KOVE
222053Z AUTO 17011KT 10SM OVC007 13/12 A3010 RMK AO2 SLP193 60000 T01330117 53015
KCIC
222049Z 12008KT 3SM -RABR OVC006 12/12 A3009
(21.5 nm NW from KOVE)
KBAB
222058Z AUTO 17013KT 10SM OVC010 14/13 A3006 RMK AO2 SLP256 T01410131 53003 $
(22.8 nm SE from KOVE)
TAF Summary (Translated TAF)
KBAB
(22.8 nm SE from KOVE)
2203/2309 14009KT 9999 VCSH BKN050 QNH3007INS BECMG 2207/2208 15012G20KT 8000 -RA OVC020 QNH3006INS BECMG 2301/2302 05009KT 9999 NSW SCT040 BKN090 QNH3006INS TX15/2221Z TN09/2212Z LAST NO AMDS AFT 2206 NEXT 2415
  Airport Weather Conditions for KOVE

 Current Weather at OVE
56° F
Overcast
South winds at 12.7 mph
OVE NOAA Radar

Pressure: 30.10 in
Humidity: 90%
Wind: South at 12.7 MPH (11 KT)
Dew Point: 53.1°F
Visibility: 10.00 mi


Airport Weather Forecast for KOVE

Translated METAR and TAF for KOVE
Translated METAR for KOVE (2120 UTC 22 November 2014)
found at http://aviationweather.gov/adds/metars/
 
METAR text: KOVE 222053Z AUTO 17011KT 10SM OVC007 13/12 A3010 RMK AO2 SLP193 60000 T01330117 53015
Conditions at: KOVE (OROVILLE , CA, US) observed 2053 UTC 22 November 2014
Temperature: 13.3°C (56°F)
Dewpoint: 11.7°C (53°F) [RH = 90%]
Pressure (altimeter): 30.10 inches Hg (1019.4 mb)
[Sea-level pressure: 1019.3 mb]
Winds: from the S (170 degrees) at 13 MPH (11 knots; 5.7 m/s)
Visibility: 10 or more miles (16+ km)
Ceiling: 700 feet AGL
Clouds: overcast cloud deck at 700 feet AGL
Weather: automated observation with no human augmentation;
there may or may not be significant weather present at this time
Translated TAF for KOVE

There is no translated TAF available for this airport

Find All Airport Services Find A Hotel Find A Rental Car Find A Golf Course Find A Restaurant $100 Hamburger



FBO's on the Field
FBO Company Facility Photos Services Transportation Aviation Fuel Prices: Prices include tax
Catering Weather Repair Courtesy Rental Type 100LL JetA JetA+ MOGAS 8087
 
Oroville Municipal Airport

This FBO has not yet been rated
FS:Epic
Last Updated: Nov-12
Login to update fuel prices
SS:
Contact Oroville Municipal AirportMore FBO Information
 
Add another FBO Facility Photos Catering Weather Repair Courtesy Rental Type 100LL JetA JetA+ MOGAS 8087
Services Transportation Aviation Fuel Prices: Prices include tax


model-print
model-print
model-print
model-print